sensor_id;sensor_type;location;lat;lon;timestamp;temperature;humidity
15636;DHT22;7917;50.818;6.972;2023-07-31T00:01:01;17.30;99.90
15636;DHT22;7917;50.818;6.972;2023-07-31T00:03:27;17.30;99.90
15636;DHT22;7917;50.818;6.972;2023-07-31T00:05:54;17.40;35.00
15636;DHT22;7917;50.818;6.972;2023-07-31T00:08:21;17.40;99.90
15636;DHT22;7917;50.818;6.972;2023-07-31T00:10:51;17.40;99.90
15636;DHT22;7917;50.818;6.972;2023-07-31T00:13:18;17.30;99.90
15636;DHT22;7917;50.818;6.972;2023-07-31T00:15:44;17.30;99.90
15636;DHT22;7917;50.818;6.972;2023-07-31T00:18:11;17.30;99.90
15636;DHT22;7917;50.818;6.972;2023-07-31T00:20:38;17.50;99.90
15636;DHT22;7917;50.818;6.972;2023-07-31T00:23:04;17.40;1.00
15636;DHT22;7917;50.818;6.972;2023-07-31T00:25:31;17.50;1.00
15636;DHT22;7917;50.818;6.972;2023-07-31T00:27:58;17.50;1.00
15636;DHT22;7917;50.818;6.972;2023-07-31T00:30:24;17.60;1.00
15636;DHT22;7917;50.818;6.972;2023-07-31T00:32:53;17.60;99.90
15636;DHT22;7917;50.818;6.972;2023-07-31T00:35:20;17.60;99.90
15636;DHT22;7917;50.818;6.972;2023-07-31T00:37:46;17.70;1.00
15636;DHT22;7917;50.818;6.972;2023-07-31T00:40:13;17.70;1.00
15636;DHT22;7917;50.818;6.972;2023-07-31T00:42:41;17.70;18.60
15636;DHT22;7917;50.818;6.972;2023-07-31T00:45:08;17.70;1.00
15636;DHT22;7917;50.818;6.972;2023-07-31T00:47:34;17.70;1.00
15636;DHT22;7917;50.818;6.972;2023-07-31T00:50:02;17.70;1.00
15636;DHT22;7917;50.818;6.972;2023-07-31T00:52:28;17.60;58.40
15636;DHT22;7917;50.818;6.972;2023-07-31T00:54:54;17.70;28.10
15636;DHT22;7917;50.818;6.972;2023-07-31T00:57:22;17.70;1.00
15636;DHT22;7917;50.818;6.972;2023-07-31T00:59:49;17.70;1.00
15636;DHT22;7917;50.818;6.972;2023-07-31T01:02:16;17.70;1.00
15636;DHT22;7917;50.818;6.972;2023-07-31T01:04:43;17.70;1.00
15636;DHT22;7917;50.818;6.972;2023-07-31T01:07:13;17.60;99.90
15636;DHT22;7917;50.818;6.972;2023-07-31T01:09:45;17.60;99.90
15636;DHT22;7917;50.818;6.972;2023-07-31T01:12:15;17.60;99.90
15636;DHT22;7917;50.818;6.972;2023-07-31T01:14:51;17.70;27.60
15636;DHT22;7917;50.818;6.972;2023-07-31T01:17:18;17.60;99.90
15636;DHT22;7917;50.818;6.972;2023-07-31T01:19:46;17.50;99.90
15636;DHT22;7917;50.818;6.972;2023-07-31T01:22:28;17.60;41.60
15636;DHT22;7917;50.818;6.972;2023-07-31T01:25:08;17.60;99.90
15636;DHT22;7917;50.818;6.972;2023-07-31T01:27:42;17.60;99.90
15636;DHT22;7917;50.818;6.972;2023-07-31T01:30:14;17.60;99.90
15636;DHT22;7917;50.818;6.972;2023-07-31T01:32:43;17.60;99.90
15636;DHT22;7917;50.818;6.972;2023-07-31T01:35:13;17.60;1.00
15636;DHT22;7917;50.818;6.972;2023-07-31T01:37:39;17.50;99.90
15636;DHT22;7917;50.818;6.972;2023-07-31T01:40:07;17.50;1.00
15636;DHT22;7917;50.818;6.972;2023-07-31T01:42:35;17.40;1.00
15636;DHT22;7917;50.818;6.972;2023-07-31T01:45:01;17.30;54.40
15636;DHT22;7917;50.818;6.972;2023-07-31T01:47:28;17.30;99.90
15636;DHT22;7917;50.818;6.972;2023-07-31T01:49:54;17.30;1.00
15636;DHT22;7917;50.818;6.972;2023-07-31T01:52:21;17.30;1.00
15636;DHT22;7917;50.818;6.972;2023-07-31T01:54:47;17.30;1.00
15636;DHT22;7917;50.818;6.972;2023-07-31T01:57:14;17.20;99.90
15636;DHT22;7917;50.818;6.972;2023-07-31T01:59:41;17.20;99.90
15636;DHT22;7917;50.818;6.972;2023-07-31T02:02:08;17.30;99.90
15636;DHT22;7917;50.818;6.972;2023-07-31T02:04:35;17.20;1.00
15636;DHT22;7917;50.818;6.972;2023-07-31T02:07:01;17.20;1.00
15636;DHT22;7917;50.818;6.972;2023-07-31T02:09:28;17.20;1.00
15636;DHT22;7917;50.818;6.972;2023-07-31T02:11:54;17.20;17.00
15636;DHT22;7917;50.818;6.972;2023-07-31T02:14:20;17.10;99.90
15636;DHT22;7917;50.818;6.972;2023-07-31T02:16:47;17.20;99.90
15636;DHT22;7917;50.818;6.972;2023-07-31T02:19:14;17.20;1.00
15636;DHT22;7917;50.818;6.972;2023-07-31T02:21:40;17.20;99.90
15636;DHT22;7917;50.818;6.972;2023-07-31T02:24:06;17.20;1.00
15636;DHT22;7917;50.818;6.972;2023-07-31T02:26:33;17.30;99.90
15636;DHT22;7917;50.818;6.972;2023-07-31T02:29:00;17.30;1.00
15636;DHT22;7917;50.818;6.972;2023-07-31T02:31:26;17.30;99.90
15636;DHT22;7917;50.818;6.972;2023-07-31T02:33:54;17.40;1.00
15636;DHT22;7917;50.818;6.972;2023-07-31T02:36:21;17.40;1.00
15636;DHT22;7917;50.818;6.972;2023-07-31T02:38:47;17.40;1.00
15636;DHT22;7917;50.818;6.972;2023-07-31T02:41:13;17.40;99.90
15636;DHT22;7917;50.818;6.972;2023-07-31T02:43:40;17.40;1.00
15636;DHT22;7917;50.818;6.972;2023-07-31T02:46:06;17.50;1.00
15636;DHT22;7917;50.818;6.972;2023-07-31T02:48:33;17.50;1.00
15636;DHT22;7917;50.818;6.972;2023-07-31T02:51:00;17.50;1.00
15636;DHT22;7917;50.818;6.972;2023-07-31T02:53:26;17.50;1.00
15636;DHT22;7917;50.818;6.972;2023-07-31T02:55:53;17.50;1.00
15636;DHT22;7917;50.818;6.972;2023-07-31T02:58:19;17.50;1.00
15636;DHT22;7917;50.818;6.972;2023-07-31T03:04:08;17.60;99.90
15636;DHT22;7917;50.818;6.972;2023-07-31T03:06:35;17.60;99.90
15636;DHT22;7917;50.818;6.972;2023-07-31T03:09:01;17.50;99.90
15636;DHT22;7917;50.818;6.972;2023-07-31T03:11:28;17.50;1.00
15636;DHT22;7917;50.818;6.972;2023-07-31T03:13:55;17.60;99.90
15636;DHT22;7917;50.818;6.972;2023-07-31T03:16:21;17.50;99.90
15636;DHT22;7917;50.818;6.972;2023-07-31T03:18:48;17.60;99.90
15636;DHT22;7917;50.818;6.972;2023-07-31T03:21:15;17.60;99.90
15636;DHT22;7917;50.818;6.972;2023-07-31T03:23:42;17.50;99.90
15636;DHT22;7917;50.818;6.972;2023-07-31T03:26:09;17.50;1.00
15636;DHT22;7917;50.818;6.972;2023-07-31T03:28:36;17.40;99.90
15636;DHT22;7917;50.818;6.972;2023-07-31T03:31:02;17.50;99.90
15636;DHT22;7917;50.818;6.972;2023-07-31T03:33:29;17.40;1.00
15636;DHT22;7917;50.818;6.972;2023-07-31T03:35:55;17.40;99.90
15636;DHT22;7917;50.818;6.972;2023-07-31T03:38:21;17.50;1.00
15636;DHT22;7917;50.818;6.972;2023-07-31T03:40:49;17.60;1.00
15636;DHT22;7917;50.818;6.972;2023-07-31T03:43:16;17.60;1.00
15636;DHT22;7917;50.818;6.972;2023-07-31T03:45:43;17.60;1.00
15636;DHT22;7917;50.818;6.972;2023-07-31T03:48:09;17.60;1.00
15636;DHT22;7917;50.818;6.972;2023-07-31T03:50:37;17.60;1.00
15636;DHT22;7917;50.818;6.972;2023-07-31T03:53:03;17.60;1.00
15636;DHT22;7917;50.818;6.972;2023-07-31T03:55:29;17.60;1.00
15636;DHT22;7917;50.818;6.972;2023-07-31T03:57:56;17.50;47.30
15636;DHT22;7917;50.818;6.972;2023-07-31T04:00:23;17.50;99.90
15636;DHT22;7917;50.818;6.972;2023-07-31T04:02:49;17.40;99.90
15636;DHT22;7917;50.818;6.972;2023-07-31T04:05:16;17.40;45.70
15636;DHT22;7917;50.818;6.972;2023-07-31T04:07:42;17.40;99.90
15636;DHT22;7917;50.818;6.972;2023-07-31T04:10:09;17.40;99.90
15636;DHT22;7917;50.818;6.972;2023-07-31T04:12:37;17.40;99.90
15636;DHT22;7917;50.818;6.972;2023-07-31T04:15:05;17.40;99.90
15636;DHT22;7917;50.818;6.972;2023-07-31T04:17:31;17.50;99.90
15636;DHT22;7917;50.818;6.972;2023-07-31T04:19:59;17.50;13.10
15636;DHT22;7917;50.818;6.972;2023-07-31T04:22:25;17.50;1.00
15636;DHT22;7917;50.818;6.972;2023-07-31T04:24:51;17.50;1.00
15636;DHT22;7917;50.818;6.972;2023-07-31T04:27:18;17.50;1.00
15636;DHT22;7917;50.818;6.972;2023-07-31T04:29:44;17.60;1.00
15636;DHT22;7917;50.818;6.972;2023-07-31T04:32:13;17.60;1.00
15636;DHT22;7917;50.818;6.972;2023-07-31T04:34:42;17.60;1.00
15636;DHT22;7917;50.818;6.972;2023-07-31T04:37:08;17.60;1.00
15636;DHT22;7917;50.818;6.972;2023-07-31T04:39:35;17.60;1.00
15636;DHT22;7917;50.818;6.972;2023-07-31T04:42:01;17.60;99.90
15636;DHT22;7917;50.818;6.972;2023-07-31T04:44:29;17.60;99.90
15636;DHT22;7917;50.818;6.972;2023-07-31T04:46:55;17.70;3.30
15636;DHT22;7917;50.818;6.972;2023-07-31T04:49:22;17.70;1.00
15636;DHT22;7917;50.818;6.972;2023-07-31T04:51:49;17.70;33.20
15636;DHT22;7917;50.818;6.972;2023-07-31T04:54:15;17.70;24.30
15636;DHT22;7917;50.818;6.972;2023-07-31T04:56:42;17.80;1.00
15636;DHT22;7917;50.818;6.972;2023-07-31T04:59:08;17.80;1.00
15636;DHT22;7917;50.818;6.972;2023-07-31T05:01:35;17.90;1.00
15636;DHT22;7917;50.818;6.972;2023-07-31T05:04:01;17.90;1.00
15636;DHT22;7917;50.818;6.972;2023-07-31T05:06:28;18.00;1.00
15636;DHT22;7917;50.818;6.972;2023-07-31T05:08:55;18.00;1.00
15636;DHT22;7917;50.818;6.972;2023-07-31T05:11:21;18.00;1.00
15636;DHT22;7917;50.818;6.972;2023-07-31T05:13:48;18.00;1.00
15636;DHT22;7917;50.818;6.972;2023-07-31T05:16:14;18.00;1.00
15636;DHT22;7917;50.818;6.972;2023-07-31T05:18:42;18.00;1.00
15636;DHT22;7917;50.818;6.972;2023-07-31T05:21:08;18.10;1.00
15636;DHT22;7917;50.818;6.972;2023-07-31T05:23:35;18.20;1.00
15636;DHT22;7917;50.818;6.972;2023-07-31T05:26:05;18.20;1.00
15636;DHT22;7917;50.818;6.972;2023-07-31T05:28:31;18.30;1.00
15636;DHT22;7917;50.818;6.972;2023-07-31T05:30:59;18.30;99.90
15636;DHT22;7917;50.818;6.972;2023-07-31T05:33:26;18.40;1.00
15636;DHT22;7917;50.818;6.972;2023-07-31T05:35:52;18.40;1.00
15636;DHT22;7917;50.818;6.972;2023-07-31T05:38:19;18.30;1.00
15636;DHT22;7917;50.818;6.972;2023-07-31T05:40:46;18.30;1.00
15636;DHT22;7917;50.818;6.972;2023-07-31T05:43:17;18.30;99.90
15636;DHT22;7917;50.818;6.972;2023-07-31T05:45:43;18.30;99.90
15636;DHT22;7917;50.818;6.972;2023-07-31T05:48:09;18.20;1.00
15636;DHT22;7917;50.818;6.972;2023-07-31T05:50:36;18.20;1.00
15636;DHT22;7917;50.818;6.972;2023-07-31T05:53:04;18.20;99.90
15636;DHT22;7917;50.818;6.972;2023-07-31T05:55:31;18.20;1.00
15636;DHT22;7917;50.818;6.972;2023-07-31T05:57:58;18.20;1.00
15636;DHT22;7917;50.818;6.972;2023-07-31T06:00:25;18.20;1.00
15636;DHT22;7917;50.818;6.972;2023-07-31T06:02:52;18.30;1.00
15636;DHT22;7917;50.818;6.972;2023-07-31T06:05:19;18.20;1.00
15636;DHT22;7917;50.818;6.972;2023-07-31T06:07:46;18.20;25.60
15636;DHT22;7917;50.818;6.972;2023-07-31T06:10:12;18.20;1.00
15636;DHT22;7917;50.818;6.972;2023-07-31T06:12:39;18.20;1.00
15636;DHT22;7917;50.818;6.972;2023-07-31T06:15:07;18.30;1.00
15636;DHT22;7917;50.818;6.972;2023-07-31T06:17:33;18.30;1.00
15636;DHT22;7917;50.818;6.972;2023-07-31T06:20:00;18.20;99.90
15636;DHT22;7917;50.818;6.972;2023-07-31T06:22:26;18.10;1.00
15636;DHT22;7917;50.818;6.972;2023-07-31T06:24:53;18.00;95.60
15636;DHT22;7917;50.818;6.972;2023-07-31T06:27:19;17.80;1.00
15636;DHT22;7917;50.818;6.972;2023-07-31T06:29:46;17.70;99.90
15636;DHT22;7917;50.818;6.972;2023-07-31T06:32:14;17.70;1.00
15636;DHT22;7917;50.818;6.972;2023-07-31T06:34:40;17.70;99.90
15636;DHT22;7917;50.818;6.972;2023-07-31T06:37:07;17.70;1.00
15636;DHT22;7917;50.818;6.972;2023-07-31T06:39:33;17.70;99.90
15636;DHT22;7917;50.818;6.972;2023-07-31T06:42:00;17.60;1.00
15636;DHT22;7917;50.818;6.972;2023-07-31T06:44:26;17.60;1.00
15636;DHT22;7917;50.818;6.972;2023-07-31T06:46:53;17.60;1.00
15636;DHT22;7917;50.818;6.972;2023-07-31T06:49:20;17.60;1.00
15636;DHT22;7917;50.818;6.972;2023-07-31T06:51:46;17.60;1.00
15636;DHT22;7917;50.818;6.972;2023-07-31T06:54:13;17.80;1.00
15636;DHT22;7917;50.818;6.972;2023-07-31T06:56:40;18.10;25.20
15636;DHT22;7917;50.818;6.972;2023-07-31T06:59:06;18.10;39.50
15636;DHT22;7917;50.818;6.972;2023-07-31T07:01:32;18.30;99.90
15636;DHT22;7917;50.818;6.972;2023-07-31T07:03:59;18.40;21.10
15636;DHT22;7917;50.818;6.972;2023-07-31T07:06:26;18.70;1.60
15636;DHT22;7917;50.818;6.972;2023-07-31T07:08:53;19.00;1.00
15636;DHT22;7917;50.818;6.972;2023-07-31T07:11:20;19.30;1.00
15636;DHT22;7917;50.818;6.972;2023-07-31T07:13:46;19.50;1.00
15636;DHT22;7917;50.818;6.972;2023-07-31T07:16:13;19.70;1.00
15636;DHT22;7917;50.818;6.972;2023-07-31T07:18:39;19.80;1.00
15636;DHT22;7917;50.818;6.972;2023-07-31T07:21:06;19.80;99.90
15636;DHT22;7917;50.818;6.972;2023-07-31T07:23:33;19.90;1.00
15636;DHT22;7917;50.818;6.972;2023-07-31T07:26:01;19.70;99.90
15636;DHT22;7917;50.818;6.972;2023-07-31T07:28:28;19.50;1.00
15636;DHT22;7917;50.818;6.972;2023-07-31T07:30:54;19.40;99.90
15636;DHT22;7917;50.818;6.972;2023-07-31T07:33:22;19.20;99.90
15636;DHT22;7917;50.818;6.972;2023-07-31T07:35:49;19.00;1.00
15636;DHT22;7917;50.818;6.972;2023-07-31T07:38:15;18.90;99.90
15636;DHT22;7917;50.818;6.972;2023-07-31T07:40:43;18.70;1.00
15636;DHT22;7917;50.818;6.972;2023-07-31T07:43:09;18.60;99.90
15636;DHT22;7917;50.818;6.972;2023-07-31T07:45:36;18.70;99.90
15636;DHT22;7917;50.818;6.972;2023-07-31T07:48:03;18.60;1.00
15636;DHT22;7917;50.818;6.972;2023-07-31T07:50:29;18.50;99.90
15636;DHT22;7917;50.818;6.972;2023-07-31T07:52:57;18.50;1.00
15636;DHT22;7917;50.818;6.972;2023-07-31T07:55:23;18.50;99.90
15636;DHT22;7917;50.818;6.972;2023-07-31T07:57:51;18.40;99.90
15636;DHT22;7917;50.818;6.972;2023-07-31T08:00:18;18.40;99.90
15636;DHT22;7917;50.818;6.972;2023-07-31T08:02:45;18.30;99.90
15636;DHT22;7917;50.818;6.972;2023-07-31T08:05:12;18.30;1.00
15636;DHT22;7917;50.818;6.972;2023-07-31T08:07:38;18.40;1.00
15636;DHT22;7917;50.818;6.972;2023-07-31T08:10:06;18.30;1.00
15636;DHT22;7917;50.818;6.972;2023-07-31T08:12:33;18.30;99.90
15636;DHT22;7917;50.818;6.972;2023-07-31T08:15:00;18.30;99.90
15636;DHT22;7917;50.818;6.972;2023-07-31T08:17:27;18.40;99.90
15636;DHT22;7917;50.818;6.972;2023-07-31T08:19:53;18.40;8.60
15636;DHT22;7917;50.818;6.972;2023-07-31T08:22:21;18.50;1.00
15636;DHT22;7917;50.818;6.972;2023-07-31T08:24:49;18.60;1.00
15636;DHT22;7917;50.818;6.972;2023-07-31T08:27:16;18.60;1.00
15636;DHT22;7917;50.818;6.972;2023-07-31T08:29:43;18.60;99.90
15636;DHT22;7917;50.818;6.972;2023-07-31T08:32:11;18.50;1.00
15636;DHT22;7917;50.818;6.972;2023-07-31T08:34:38;18.50;1.00
15636;DHT22;7917;50.818;6.972;2023-07-31T08:37:04;18.50;90.20
15636;DHT22;7917;50.818;6.972;2023-07-31T08:39:31;18.50;1.00
15636;DHT22;7917;50.818;6.972;2023-07-31T08:41:58;18.60;1.00
15636;DHT22;7917;50.818;6.972;2023-07-31T08:44:26;18.60;1.00
15636;DHT22;7917;50.818;6.972;2023-07-31T08:46:52;18.50;1.00
15636;DHT22;7917;50.818;6.972;2023-07-31T08:49:22;18.50;1.00
15636;DHT22;7917;50.818;6.972;2023-07-31T08:51:50;18.60;1.00
15636;DHT22;7917;50.818;6.972;2023-07-31T08:54:17;18.60;99.90
15636;DHT22;7917;50.818;6.972;2023-07-31T08:56:44;18.70;99.90
15636;DHT22;7917;50.818;6.972;2023-07-31T08:59:12;18.80;1.00
15636;DHT22;7917;50.818;6.972;2023-07-31T09:01:43;18.70;1.00
15636;DHT22;7917;50.818;6.972;2023-07-31T09:04:11;18.80;1.00
15636;DHT22;7917;50.818;6.972;2023-07-31T09:06:40;18.90;99.90
15636;DHT22;7917;50.818;6.972;2023-07-31T09:09:10;19.00;99.90
15636;DHT22;7917;50.818;6.972;2023-07-31T09:11:36;19.10;32.00
15636;DHT22;7917;50.818;6.972;2023-07-31T09:14:03;19.20;1.00
15636;DHT22;7917;50.818;6.972;2023-07-31T09:16:34;19.30;1.00
15636;DHT22;7917;50.818;6.972;2023-07-31T09:19:02;19.20;1.00
15636;DHT22;7917;50.818;6.972;2023-07-31T09:21:30;19.10;99.90
15636;DHT22;7917;50.818;6.972;2023-07-31T09:23:58;18.80;1.00
15636;DHT22;7917;50.818;6.972;2023-07-31T09:26:32;18.80;1.00
15636;DHT22;7917;50.818;6.972;2023-07-31T09:29:00;18.70;1.00
15636;DHT22;7917;50.818;6.972;2023-07-31T09:31:41;18.80;99.90
15636;DHT22;7917;50.818;6.972;2023-07-31T09:34:08;18.80;99.90
15636;DHT22;7917;50.818;6.972;2023-07-31T09:36:41;18.80;99.90
15636;DHT22;7917;50.818;6.972;2023-07-31T09:39:12;18.80;99.90
15636;DHT22;7917;50.818;6.972;2023-07-31T09:41:40;18.80;1.00
15636;DHT22;7917;50.818;6.972;2023-07-31T09:44:08;18.80;1.00
15636;DHT22;7917;50.818;6.972;2023-07-31T09:46:35;18.80;1.00
15636;DHT22;7917;50.818;6.972;2023-07-31T09:49:09;18.70;1.00
15636;DHT22;7917;50.818;6.972;2023-07-31T09:51:36;18.80;1.00
15636;DHT22;7917;50.818;6.972;2023-07-31T09:54:10;19.00;1.00
15636;DHT22;7917;50.818;6.972;2023-07-31T09:56:41;19.00;1.00
15636;DHT22;7917;50.818;6.972;2023-07-31T09:59:12;19.10;1.00
15636;DHT22;7917;50.818;6.972;2023-07-31T10:01:40;19.30;99.90
15636;DHT22;7917;50.818;6.972;2023-07-31T10:04:08;19.50;99.90
15636;DHT22;7917;50.818;6.972;2023-07-31T10:06:36;19.60;99.90
15636;DHT22;7917;50.818;6.972;2023-07-31T10:09:03;19.80;1.00
15636;DHT22;7917;50.818;6.972;2023-07-31T10:11:36;20.10;99.90
15636;DHT22;7917;50.818;6.972;2023-07-31T10:14:05;20.20;1.00
15636;DHT22;7917;50.818;6.972;2023-07-31T10:16:34;20.10;99.90
15636;DHT22;7917;50.818;6.972;2023-07-31T10:19:02;20.20;99.90
15636;DHT22;7917;50.818;6.972;2023-07-31T10:21:29;20.40;1.00
15636;DHT22;7917;50.818;6.972;2023-07-31T10:23:57;20.40;99.90
15636;DHT22;7917;50.818;6.972;2023-07-31T10:26:25;20.40;99.90
15636;DHT22;7917;50.818;6.972;2023-07-31T10:28:53;20.40;99.90
15636;DHT22;7917;50.818;6.972;2023-07-31T10:31:21;20.40;99.90
15636;DHT22;7917;50.818;6.972;2023-07-31T10:33:49;20.40;99.90
15636;DHT22;7917;50.818;6.972;2023-07-31T10:36:18;20.50;99.90
15636;DHT22;7917;50.818;6.972;2023-07-31T10:38:45;20.60;99.90
15636;DHT22;7917;50.818;6.972;2023-07-31T10:41:14;20.80;99.90
15636;DHT22;7917;50.818;6.972;2023-07-31T10:43:41;20.80;99.90
15636;DHT22;7917;50.818;6.972;2023-07-31T10:46:09;20.80;99.90
15636;DHT22;7917;50.818;6.972;2023-07-31T10:48:39;20.90;99.90
15636;DHT22;7917;50.818;6.972;2023-07-31T10:51:08;20.80;99.90
15636;DHT22;7917;50.818;6.972;2023-07-31T10:53:36;20.60;99.90
15636;DHT22;7917;50.818;6.972;2023-07-31T10:56:04;20.60;99.90
15636;DHT22;7917;50.818;6.972;2023-07-31T10:58:31;20.60;99.90
15636;DHT22;7917;50.818;6.972;2023-07-31T11:01:00;20.50;99.90
15636;DHT22;7917;50.818;6.972;2023-07-31T11:03:41;20.40;99.90
15636;DHT22;7917;50.818;6.972;2023-07-31T11:06:08;20.20;99.90
15636;DHT22;7917;50.818;6.972;2023-07-31T11:08:40;20.20;99.90
15636;DHT22;7917;50.818;6.972;2023-07-31T11:11:09;20.10;99.90
15636;DHT22;7917;50.818;6.972;2023-07-31T11:13:47;20.10;99.90
15636;DHT22;7917;50.818;6.972;2023-07-31T11:16:15;20.10;99.90
15636;DHT22;7917;50.818;6.972;2023-07-31T11:18:45;20.10;99.90
15636;DHT22;7917;50.818;6.972;2023-07-31T11:21:13;20.10;1.00
15636;DHT22;7917;50.818;6.972;2023-07-31T11:23:40;19.80;1.00
15636;DHT22;7917;50.818;6.972;2023-07-31T11:26:08;19.40;47.10
15636;DHT22;7917;50.818;6.972;2023-07-31T11:28:35;19.10;1.00
15636;DHT22;7917;50.818;6.972;2023-07-31T11:31:02;19.20;1.00
15636;DHT22;7917;50.818;6.972;2023-07-31T11:33:29;19.50;99.90
15636;DHT22;7917;50.818;6.972;2023-07-31T11:35:57;19.70;1.00
15636;DHT22;7917;50.818;6.972;2023-07-31T11:38:25;19.80;1.00
15636;DHT22;7917;50.818;6.972;2023-07-31T11:40:53;20.10;1.00
15636;DHT22;7917;50.818;6.972;2023-07-31T11:43:21;20.40;99.90
15636;DHT22;7917;50.818;6.972;2023-07-31T11:45:49;20.50;99.90
15636;DHT22;7917;50.818;6.972;2023-07-31T11:48:20;20.70;99.90
15636;DHT22;7917;50.818;6.972;2023-07-31T11:50:48;20.80;99.90
15636;DHT22;7917;50.818;6.972;2023-07-31T11:53:19;21.20;99.90
15636;DHT22;7917;50.818;6.972;2023-07-31T11:55:47;21.50;99.90
15636;DHT22;7917;50.818;6.972;2023-07-31T11:58:15;21.70;99.90
15636;DHT22;7917;50.818;6.972;2023-07-31T12:00:43;21.90;99.90
15636;DHT22;7917;50.818;6.972;2023-07-31T12:03:11;21.80;99.90
15636;DHT22;7917;50.818;6.972;2023-07-31T12:05:38;22.10;99.90
15636;DHT22;7917;50.818;6.972;2023-07-31T12:08:10;22.10;96.80
15636;DHT22;7917;50.818;6.972;2023-07-31T12:10:38;22.10;88.00
15636;DHT22;7917;50.818;6.972;2023-07-31T12:13:08;21.70;99.90
15636;DHT22;7917;50.818;6.972;2023-07-31T12:15:40;21.60;99.90
15636;DHT22;7917;50.818;6.972;2023-07-31T12:18:09;21.60;99.90
15636;DHT22;7917;50.818;6.972;2023-07-31T12:20:41;21.80;99.90
15636;DHT22;7917;50.818;6.972;2023-07-31T12:23:13;21.80;99.90
15636;DHT22;7917;50.818;6.972;2023-07-31T12:25:41;21.70;99.90
15636;DHT22;7917;50.818;6.972;2023-07-31T12:28:07;21.50;99.90
15636;DHT22;7917;50.818;6.972;2023-07-31T12:30:40;21.40;99.90
15636;DHT22;7917;50.818;6.972;2023-07-31T12:33:12;21.40;99.90
15636;DHT22;7917;50.818;6.972;2023-07-31T12:35:43;21.20;99.90
15636;DHT22;7917;50.818;6.972;2023-07-31T12:38:12;21.00;99.90
15636;DHT22;7917;50.818;6.972;2023-07-31T12:40:40;20.80;99.90
15636;DHT22;7917;50.818;6.972;2023-07-31T12:43:07;20.80;99.90
15636;DHT22;7917;50.818;6.972;2023-07-31T12:45:35;20.80;99.90
15636;DHT22;7917;50.818;6.972;2023-07-31T12:48:03;20.80;99.90
15636;DHT22;7917;50.818;6.972;2023-07-31T12:50:29;20.90;99.90
15636;DHT22;7917;50.818;6.972;2023-07-31T12:52:56;21.00;99.90
15636;DHT22;7917;50.818;6.972;2023-07-31T12:55:24;21.20;99.90
15636;DHT22;7917;50.818;6.972;2023-07-31T12:57:52;21.20;99.90
15636;DHT22;7917;50.818;6.972;2023-07-31T13:00:20;21.20;99.90
15636;DHT22;7917;50.818;6.972;2023-07-31T13:02:46;21.20;99.90
15636;DHT22;7917;50.818;6.972;2023-07-31T13:05:14;21.20;99.90
15636;DHT22;7917;50.818;6.972;2023-07-31T13:07:40;21.20;99.90
15636;DHT22;7917;50.818;6.972;2023-07-31T13:10:08;21.20;99.90
15636;DHT22;7917;50.818;6.972;2023-07-31T13:12:35;21.40;99.90
15636;DHT22;7917;50.818;6.972;2023-07-31T13:15:03;21.50;99.90
15636;DHT22;7917;50.818;6.972;2023-07-31T13:17:30;21.30;99.90
15636;DHT22;7917;50.818;6.972;2023-07-31T13:19:57;21.20;99.90
15636;DHT22;7917;50.818;6.972;2023-07-31T13:22:24;21.00;99.90
15636;DHT22;7917;50.818;6.972;2023-07-31T13:24:51;21.00;99.90
15636;DHT22;7917;50.818;6.972;2023-07-31T13:27:17;21.00;99.90
15636;DHT22;7917;50.818;6.972;2023-07-31T13:29:46;20.90;99.90
15636;DHT22;7917;50.818;6.972;2023-07-31T13:32:13;21.00;99.90
15636;DHT22;7917;50.818;6.972;2023-07-31T13:34:40;21.30;99.90
15636;DHT22;7917;50.818;6.972;2023-07-31T13:37:07;21.50;99.90
15636;DHT22;7917;50.818;6.972;2023-07-31T13:39:34;21.60;99.90
15636;DHT22;7917;50.818;6.972;2023-07-31T13:42:01;21.80;99.90
15636;DHT22;7917;50.818;6.972;2023-07-31T13:44:29;21.90;90.10
15636;DHT22;7917;50.818;6.972;2023-07-31T13:46:56;21.90;99.90
15636;DHT22;7917;50.818;6.972;2023-07-31T13:49:23;21.80;93.70
15636;DHT22;7917;50.818;6.972;2023-07-31T13:51:51;21.90;98.90
15636;DHT22;7917;50.818;6.972;2023-07-31T13:54:18;22.20;89.40
15636;DHT22;7917;50.818;6.972;2023-07-31T13:56:45;22.50;70.20
15636;DHT22;7917;50.818;6.972;2023-07-31T13:59:11;22.50;13.20
15636;DHT22;7917;50.818;6.972;2023-07-31T14:01:38;22.50;14.30
15636;DHT22;7917;50.818;6.972;2023-07-31T14:04:05;22.50;29.80
15636;DHT22;7917;50.818;6.972;2023-07-31T14:06:33;22.30;14.40
15636;DHT22;7917;50.818;6.972;2023-07-31T14:08:59;22.40;43.70
15636;DHT22;7917;50.818;6.972;2023-07-31T14:11:26;22.30;17.00
15636;DHT22;7917;50.818;6.972;2023-07-31T14:13:54;22.10;71.10
15636;DHT22;7917;50.818;6.972;2023-07-31T14:16:22;22.00;52.20
15636;DHT22;7917;50.818;6.972;2023-07-31T14:18:49;21.70;37.20
15636;DHT22;7917;50.818;6.972;2023-07-31T14:21:16;21.40;73.50
15636;DHT22;7917;50.818;6.972;2023-07-31T14:23:46;21.30;99.90
15636;DHT22;7917;50.818;6.972;2023-07-31T14:26:12;21.20;99.90
15636;DHT22;7917;50.818;6.972;2023-07-31T14:28:39;21.20;99.90
15636;DHT22;7917;50.818;6.972;2023-07-31T14:31:08;21.00;99.90
15636;DHT22;7917;50.818;6.972;2023-07-31T14:33:37;21.00;99.90
15636;DHT22;7917;50.818;6.972;2023-07-31T14:36:04;21.00;99.90
15636;DHT22;7917;50.818;6.972;2023-07-31T14:38:31;21.10;99.90
15636;DHT22;7917;50.818;6.972;2023-07-31T14:40:59;21.00;99.90
15636;DHT22;7917;50.818;6.972;2023-07-31T14:43:26;20.90;99.90
15636;DHT22;7917;50.818;6.972;2023-07-31T14:45:53;20.80;99.90
15636;DHT22;7917;50.818;6.972;2023-07-31T14:48:22;20.70;99.90
15636;DHT22;7917;50.818;6.972;2023-07-31T14:50:49;20.60;99.90
15636;DHT22;7917;50.818;6.972;2023-07-31T14:53:16;20.60;99.90
15636;DHT22;7917;50.818;6.972;2023-07-31T14:55:43;20.50;99.90
15636;DHT22;7917;50.818;6.972;2023-07-31T14:58:10;20.50;99.90
15636;DHT22;7917;50.818;6.972;2023-07-31T15:00:39;20.50;99.90
15636;DHT22;7917;50.818;6.972;2023-07-31T15:03:06;20.50;99.90
15636;DHT22;7917;50.818;6.972;2023-07-31T15:05:33;20.50;99.90
15636;DHT22;7917;50.818;6.972;2023-07-31T15:07:59;20.50;99.90
15636;DHT22;7917;50.818;6.972;2023-07-31T15:10:26;20.50;99.90
15636;DHT22;7917;50.818;6.972;2023-07-31T15:12:54;20.50;99.90
15636;DHT22;7917;50.818;6.972;2023-07-31T15:15:21;20.50;99.90
15636;DHT22;7917;50.818;6.972;2023-07-31T15:17:48;20.40;99.90
15636;DHT22;7917;50.818;6.972;2023-07-31T15:20:15;20.40;99.90
15636;DHT22;7917;50.818;6.972;2023-07-31T15:22:42;20.40;99.90
15636;DHT22;7917;50.818;6.972;2023-07-31T15:25:09;20.40;99.90
15636;DHT22;7917;50.818;6.972;2023-07-31T15:27:36;20.40;99.90
15636;DHT22;7917;50.818;6.972;2023-07-31T15:30:03;20.40;99.90
15636;DHT22;7917;50.818;6.972;2023-07-31T15:32:31;20.40;99.90
15636;DHT22;7917;50.818;6.972;2023-07-31T15:34:58;20.50;99.90
15636;DHT22;7917;50.818;6.972;2023-07-31T15:37:25;20.50;99.90
15636;DHT22;7917;50.818;6.972;2023-07-31T15:39:52;20.50;99.90
15636;DHT22;7917;50.818;6.972;2023-07-31T15:42:18;20.50;99.90
15636;DHT22;7917;50.818;6.972;2023-07-31T15:44:45;20.50;99.90
15636;DHT22;7917;50.818;6.972;2023-07-31T15:47:12;20.50;99.90
15636;DHT22;7917;50.818;6.972;2023-07-31T15:49:39;20.50;99.90
15636;DHT22;7917;50.818;6.972;2023-07-31T15:52:07;20.50;99.90
15636;DHT22;7917;50.818;6.972;2023-07-31T15:54:34;20.60;99.90
15636;DHT22;7917;50.818;6.972;2023-07-31T15:57:01;20.40;99.90